Time;durP1;ratioP1;P1;durP2;ratioP2;P2;SDS_P1;SDS_P2;PMS_P1;PMS_P2;Temp;Humidity;BMP_temperature;BMP_pressure;BME280_temperature;BME280_humidity;BME280_pressure;Samples;Min_cycle;Max_cycle;Signal;HPM_P1;HPM_P2
2023/07/18 00:01:46;;;;;;;7.07;2.13;;;14.60;99.90;;;;;;5093765;28;20038;-62
2023/07/18 00:04:11;;;;;;;4.47;1.73;;;14.70;99.90;;;;;;5094278;28;20036;-62
2023/07/18 00:06:40;;;;;;;4.68;1.80;;;14.60;99.90;;;;;;5094899;28;20050;-62
2023/07/18 00:09:06;;;;;;;9.30;1.70;;;14.70;99.90;;;;;;5094007;28;20036;-62
2023/07/18 00:11:31;;;;;;;3.42;1.52;;;14.70;99.90;;;;;;5094231;28;20093;-62
2023/07/18 00:13:57;;;;;;;6.03;2.10;;;14.70;99.90;;;;;;5094844;28;20397;-62
2023/07/18 00:16:23;;;;;;;5.22;2.55;;;14.70;99.90;;;;;;5092521;28;20035;-62
2023/07/18 00:18:50;;;;;;;6.60;1.50;;;14.70;99.90;;;;;;5094318;28;20045;-62
2023/07/18 00:21:16;;;;;;;9.75;2.47;;;14.70;99.90;;;;;;5093351;28;20059;-62
2023/07/18 00:23:42;;;;;;;5.28;1.92;;;14.70;99.90;;;;;;5092879;28;20393;-62
2023/07/18 00:26:08;;;;;;;9.73;1.90;;;14.70;99.90;;;;;;5093570;28;20046;-62
2023/07/18 00:28:34;;;;;;;3.78;1.83;;;14.70;99.90;;;;;;5093198;28;20048;-62
2023/07/18 00:31:01;;;;;;;4.57;2.22;;;14.70;99.90;;;;;;5092598;28;20101;-62
2023/07/18 00:33:27;;;;;;;3.28;1.65;;;14.70;99.90;;;;;;5094399;28;20028;-62
2023/07/18 00:35:58;;;;;;;4.45;1.38;;;14.70;99.90;;;;;;5093159;28;20595;-62
2023/07/18 00:38:24;;;;;;;4.25;1.52;;;14.70;99.90;;;;;;5093547;28;20031;-62
2023/07/18 00:40:49;;;;;;;3.55;1.80;;;14.70;99.90;;;;;;5127004;27;20047;-62
2023/07/18 00:43:15;;;;;;;3.67;1.38;;;14.70;99.90;;;;;;5075928;28;20036;-62
2023/07/18 00:45:43;;;;;;;4.68;1.95;;;14.70;99.90;;;;;;5093271;28;20373;-62
2023/07/18 00:48:09;;;;;;;5.93;2.05;;;14.60;99.90;;;;;;5093278;28;20058;-62
2023/07/18 00:50:36;;;;;;;4.47;1.90;;;14.60;99.90;;;;;;5093909;28;20137;-62
2023/07/18 00:53:02;;;;;;;9.30;1.70;;;14.60;99.90;;;;;;5091914;28;20059;-62
2023/07/18 00:55:28;;;;;;;8.45;1.67;;;14.60;99.90;;;;;;5126838;27;20048;-62
2023/07/18 00:57:54;;;;;;;6.75;1.85;;;14.50;99.90;;;;;;5092897;28;20054;-62
2023/07/18 01:00:22;;;;;;;4.05;1.98;;;14.50;99.90;;;;;;5093173;28;20456;-62
2023/07/18 01:02:49;;;;;;;3.85;1.52;;;14.50;99.90;;;;;;5092610;28;20554;-62
2023/07/18 01:05:17;;;;;;;5.88;1.33;;;14.50;99.90;;;;;;5092346;28;20074;-62
2023/07/18 01:07:44;;;;;;;5.03;2.45;;;14.50;99.90;;;;;;5092834;28;20373;-63
2023/07/18 01:10:23;;;;;;;4.50;1.27;;;14.50;99.90;;;;;;5075660;28;20036;-62
2023/07/18 01:13:00;;;;;;;5.13;1.33;;;14.50;99.90;;;;;;5091668;28;20081;-62
2023/07/18 01:15:31;;;;;;;4.05;1.05;;;14.50;99.90;;;;;;5093378;28;20396;-62
2023/07/18 01:17:57;;;;;;;8.80;2.30;;;14.50;99.90;;;;;;5075534;28;20044;-62
2023/07/18 01:20:27;;;;;;;3.70;1.45;;;14.50;99.90;;;;;;5091575;28;20497;-62
2023/07/18 01:22:58;;;;;;;4.82;1.77;;;14.50;99.90;;;;;;5092413;28;20397;-62
2023/07/18 01:25:24;;;;;;;5.82;2.00;;;14.50;99.90;;;;;;5093096;28;20039;-62
2023/07/18 01:27:51;;;;;;;5.07;1.80;;;14.50;99.90;;;;;;5092491;28;20051;-62
2023/07/18 01:30:19;;;;;;;3.90;2.03;;;14.50;99.90;;;;;;5091753;28;20040;-62
2023/07/18 01:32:48;;;;;;;2.60;1.30;;;14.50;99.90;;;;;;5126071;27;20126;-62
2023/07/18 01:35:15;;;;;;;7.78;2.50;;;14.50;99.90;;;;;;5091225;28;20374;-62
2023/07/18 01:37:44;;;;;;;6.03;2.05;;;14.50;99.90;;;;;;5093196;28;20055;-62
2023/07/18 01:40:12;;;;;;;4.70;1.95;;;14.50;99.90;;;;;;5092945;28;20044;-62
2023/07/18 01:42:39;;;;;;;4.15;1.38;;;14.60;99.90;;;;;;5091382;28;20036;-62
2023/07/18 01:45:06;;;;;;;7.32;2.58;;;14.50;99.90;;;;;;5075212;28;20044;-61
2023/07/18 01:47:32;;;;;;;8.57;3.40;;;14.50;99.90;;;;;;5091855;28;20051;-62
2023/07/18 01:49:59;;;;;;;6.63;3.38;;;14.60;99.90;;;;;;5091798;28;20086;-62
2023/07/18 01:52:27;;;;;;;6.05;2.55;;;14.60;99.90;;;;;;5091655;28;20048;-62
2023/07/18 01:54:54;;;;;;;8.25;2.78;;;14.60;99.90;;;;;;5091697;28;20058;-62
2023/07/18 01:57:20;;;;;;;8.80;3.25;;;14.70;99.90;;;;;;5092323;28;20051;-62
2023/07/18 01:59:45;;;;;;;9.23;3.10;;;14.70;99.90;;;;;;5090937;28;20032;-62
2023/07/18 02:02:11;;;;;;;8.00;3.00;;;14.70;99.90;;;;;;5090694;28;20046;-62
2023/07/18 02:04:37;;;;;;;10.63;3.95;;;14.70;99.90;;;;;;5091136;28;20123;-62
2023/07/18 02:07:03;;;;;;;5.75;2.97;;;14.70;99.90;;;;;;5091247;28;20044;-62
2023/07/18 02:09:28;;;;;;;5.88;2.75;;;14.70;99.90;;;;;;5090357;28;20051;-62
2023/07/18 02:11:54;;;;;;;6.80;2.72;;;14.70;99.90;;;;;;5091114;28;20043;-62
2023/07/18 02:14:20;;;;;;;6.60;2.50;;;14.70;99.90;;;;;;5090982;28;20186;-62
2023/07/18 02:16:46;;;;;;;10.65;3.90;;;14.70;99.90;;;;;;5089965;28;20071;-62
2023/07/18 02:19:13;;;;;;;7.38;3.00;;;14.70;99.90;;;;;;5092420;28;20047;-63
2023/07/18 02:21:38;;;;;;;10.10;3.58;;;14.70;99.90;;;;;;5074853;28;20392;-62
2023/07/18 02:24:05;;;;;;;6.30;3.10;;;14.70;99.90;;;;;;5090029;28;20032;-62
2023/07/18 02:26:30;;;;;;;5.18;2.80;;;14.70;99.90;;;;;;5092138;28;20051;-62
2023/07/18 02:28:56;;;;;;;7.20;3.55;;;14.70;99.90;;;;;;5092151;28;20040;-62
2023/07/18 02:31:22;;;;;;;5.10;2.75;;;14.70;99.90;;;;;;5091369;28;20067;-62
2023/07/18 02:33:47;;;;;;;7.53;2.40;;;14.60;99.90;;;;;;5090899;28;20408;-62
2023/07/18 02:36:13;;;;;;;5.20;2.47;;;14.60;99.90;;;;;;5091281;28;20079;-63
2023/07/18 02:38:39;;;;;;;6.10;3.00;;;14.50;99.90;;;;;;5090681;28;20046;-62
2023/07/18 02:41:05;;;;;;;6.13;3.00;;;14.60;99.90;;;;;;5091196;28;20123;-62
2023/07/18 02:43:30;;;;;;;6.05;2.70;;;14.50;99.90;;;;;;5090898;28;20024;-62
2023/07/18 02:45:56;;;;;;;5.90;2.72;;;14.60;99.90;;;;;;5090247;28;20051;-62
2023/07/18 02:48:22;;;;;;;4.75;2.70;;;14.50;99.90;;;;;;5090837;28;20063;-62
2023/07/18 02:50:50;;;;;;;4.55;2.03;;;14.50;99.90;;;;;;5090814;28;20055;-62
2023/07/18 02:53:16;;;;;;;4.50;2.42;;;14.50;99.90;;;;;;5091187;28;20048;-62
2023/07/18 02:55:42;;;;;;;8.93;4.18;;;14.50;99.90;;;;;;5090400;28;20070;-62
2023/07/18 02:58:08;;;;;;;9.35;4.28;;;14.40;99.90;;;;;;5091472;28;20119;-62
2023/07/18 03:00:33;;;;;;;11.27;4.13;;;14.50;99.90;;;;;;5092112;28;20043;-62
2023/07/18 03:03:00;;;;;;;11.60;4.40;;;14.40;99.90;;;;;;5091002;28;20102;-62
2023/07/18 03:05:27;;;;;;;11.73;5.00;;;14.40;99.90;;;;;;5091163;28;20118;-62
2023/07/18 03:07:54;;;;;;;11.52;4.30;;;14.40;99.90;;;;;;5091259;28;20055;-62
2023/07/18 03:10:21;;;;;;;11.18;4.20;;;14.40;99.90;;;;;;5095008;28;20079;-62
2023/07/18 03:12:47;;;;;;;7.93;3.78;;;14.40;99.90;;;;;;5093871;28;20473;-62
2023/07/18 03:15:13;;;;;;;8.15;4.20;;;14.40;99.90;;;;;;5096308;28;20098;-62
2023/07/18 03:17:39;;;;;;;9.30;3.90;;;14.40;99.90;;;;;;5096163;28;20040;-62
2023/07/18 03:20:13;;;;;;;6.13;3.30;;;14.40;99.90;;;;;;5093994;28;20036;-62
2023/07/18 03:22:39;;;;;;;9.75;2.85;;;14.30;99.90;;;;;;5077924;28;20040;-62
2023/07/18 03:25:08;;;;;;;9.23;2.75;;;14.30;99.90;;;;;;5129029;27;20051;-62
2023/07/18 03:27:33;;;;;;;7.47;3.22;;;14.30;99.90;;;;;;5094829;28;20046;-62
2023/07/18 03:29:59;;;;;;;6.20;3.55;;;14.30;99.90;;;;;;5095681;28;20127;-62
2023/07/18 03:32:25;;;;;;;5.93;3.13;;;14.30;99.90;;;;;;5108552;27;20120;-62
2023/07/18 03:34:51;;;;;;;8.00;3.63;;;14.30;99.90;;;;;;5073118;28;20043;-62
2023/07/18 03:37:17;;;;;;;8.93;3.17;;;14.30;99.90;;;;;;5081557;28;20036;-62
2023/07/18 03:39:42;;;;;;;6.30;2.70;;;14.30;99.90;;;;;;5095166;28;20423;-62
2023/07/18 03:42:08;;;;;;;13.25;3.13;;;14.30;99.90;;;;;;5094805;28;20496;-62
2023/07/18 03:44:34;;;;;;;5.15;2.88;;;14.30;99.90;;;;;;5094383;28;20036;-62
2023/07/18 03:46:59;;;;;;;8.15;3.00;;;14.30;99.90;;;;;;5095286;28;20094;-62
2023/07/18 03:49:25;;;;;;;7.38;3.47;;;14.20;99.90;;;;;;5094260;28;20135;-62
2023/07/18 03:51:51;;;;;;;5.40;2.67;;;14.30;99.90;;;;;;5128162;27;20059;-62
2023/07/18 03:54:17;;;;;;;11.15;3.33;;;14.30;99.90;;;;;;5127044;27;20073;-62
2023/07/18 03:56:42;;;;;;;6.25;2.83;;;14.20;99.90;;;;;;5095120;28;20103;-62
2023/07/18 03:59:08;;;;;;;9.30;3.35;;;14.30;99.90;;;;;;5128450;27;20096;-62
2023/07/18 04:01:33;;;;;;;6.25;3.35;;;14.30;99.90;;;;;;5093134;28;20082;-63
2023/07/18 04:03:59;;;;;;;7.70;3.55;;;14.30;99.90;;;;;;5127763;27;20036;-62
2023/07/18 04:06:25;;;;;;;6.65;3.60;;;14.40;99.90;;;;;;5127515;27;20035;-62
2023/07/18 04:08:50;;;;;;;9.50;3.83;;;14.40;99.90;;;;;;5092305;28;20097;-62
2023/07/18 04:11:16;;;;;;;6.28;3.65;;;14.40;99.90;;;;;;5093463;28;20044;-62
2023/07/18 04:13:42;;;;;;;6.45;3.42;;;14.40;99.90;;;;;;5076517;28;20093;-62
2023/07/18 04:16:08;;;;;;;5.30;3.15;;;14.40;99.90;;;;;;5094066;28;20032;-62
2023/07/18 04:18:34;;;;;;;6.72;3.55;;;14.50;99.90;;;;;;5092764;28;20033;-62
2023/07/18 04:21:03;;;;;;;5.60;3.13;;;14.50;99.90;;;;;;5093509;28;20044;-62
2023/07/18 04:23:30;;;;;;;6.75;3.40;;;14.50;99.90;;;;;;5092513;28;20043;-62
2023/07/18 04:26:03;;;;;;;6.47;3.47;;;14.60;99.90;;;;;;5093411;28;20040;-62
2023/07/18 04:28:34;;;;;;;10.50;3.70;;;14.60;99.90;;;;;;5093383;28;20047;-62
2023/07/18 04:31:00;;;;;;;6.07;3.13;;;14.60;99.90;;;;;;5093644;28;20051;-62
2023/07/18 04:33:26;;;;;;;5.25;3.15;;;14.70;99.90;;;;;;5076074;28;20046;-62
2023/07/18 04:35:51;;;;;;;8.98;2.90;;;14.70;99.90;;;;;;5092986;28;20131;-62
2023/07/18 04:38:17;;;;;;;8.32;3.55;;;14.70;99.90;;;;;;5093544;28;20086;-62
2023/07/18 04:40:43;;;;;;;6.13;3.15;;;14.70;99.90;;;;;;5127286;27;20047;-62
2023/07/18 04:43:09;;;;;;;7.45;3.25;;;14.80;99.90;;;;;;5094577;28;20058;-62
2023/07/18 04:45:46;;;;;;;11.38;4.70;;;14.80;99.90;;;;;;5092104;28;20560;-62
2023/07/18 04:48:16;;;;;;;13.45;4.82;;;14.90;99.90;;;;;;5093392;28;20032;-62
2023/07/18 04:50:46;;;;;;;18.05;5.38;;;14.90;99.90;;;;;;5093186;28;20094;-62
2023/07/18 04:53:12;;;;;;;9.55;4.60;;;14.90;99.90;;;;;;5094261;28;20115;-62
2023/07/18 04:55:39;;;;;;;10.57;4.15;;;14.90;99.90;;;;;;5127095;27;20105;-62
2023/07/18 04:58:06;;;;;;;18.13;5.88;;;15.00;99.90;;;;;;5093531;28;20040;-63
2023/07/18 05:00:33;;;;;;;14.13;5.53;;;15.10;99.90;;;;;;5094043;28;20142;-62
2023/07/18 05:03:00;;;;;;;15.27;5.95;;;15.10;99.90;;;;;;5093882;28;20062;-62
2023/07/18 05:05:27;;;;;;;16.40;5.85;;;15.20;99.90;;;;;;5091651;28;20481;-62
2023/07/18 05:07:54;;;;;;;17.92;7.00;;;15.20;99.90;;;;;;5092438;28;20500;-62
2023/07/18 05:10:22;;;;;;;10.82;4.05;;;15.30;99.90;;;;;;5093749;28;20523;-62
2023/07/18 05:12:48;;;;;;;10.00;3.45;;;15.30;99.90;;;;;;5091454;28;20040;-62
2023/07/18 05:15:13;;;;;;;10.75;3.60;;;15.40;99.90;;;;;;5092273;28;20502;-62
2023/07/18 05:17:39;;;;;;;19.50;4.22;;;15.50;99.90;;;;;;5092614;28;20036;-62
2023/07/18 05:20:05;;;;;;;11.82;5.38;;;15.50;99.90;;;;;;5091475;28;20047;-62
2023/07/18 05:22:31;;;;;;;14.07;5.10;;;15.60;99.90;;;;;;5092564;28;20066;-63
2023/07/18 05:24:59;;;;;;;13.55;4.95;;;15.60;99.90;;;;;;5092189;28;20537;-62
2023/07/18 05:27:24;;;;;;;12.25;5.28;;;15.70;99.90;;;;;;5092260;28;20040;-62
2023/07/18 05:29:50;;;;;;;13.52;5.78;;;15.80;99.90;;;;;;5109148;28;20093;-62
2023/07/18 05:32:16;;;;;;;11.77;4.95;;;15.80;99.90;;;;;;5091296;28;20072;-62
2023/07/18 05:34:42;;;;;;;16.02;5.15;;;15.80;99.90;;;;;;5091283;28;20043;-62
2023/07/18 05:37:07;;;;;;;15.32;5.40;;;15.90;99.90;;;;;;5092464;28;20119;-62
2023/07/18 05:39:33;;;;;;;12.40;5.10;;;16.00;99.90;;;;;;5091872;28;20040;-62
2023/07/18 05:41:59;;;;;;;14.23;5.00;;;16.10;99.90;;;;;;5125478;27;20032;-63
2023/07/18 05:44:24;;;;;;;10.15;5.22;;;16.10;99.90;;;;;;5125860;27;20035;-63
2023/07/18 05:46:50;;;;;;;17.05;5.80;;;16.10;99.90;;;;;;5124840;27;20080;-62
2023/07/18 05:49:16;;;;;;;12.30;5.45;;;16.20;99.90;;;;;;5091619;28;20052;-62
2023/07/18 05:51:41;;;;;;;13.98;5.90;;;16.30;99.90;;;;;;5091510;28;20073;-62
2023/07/18 05:54:07;;;;;;;11.77;4.68;;;16.30;99.90;;;;;;5091087;28;20052;-62
2023/07/18 05:56:33;;;;;;;16.27;6.47;;;16.30;99.90;;;;;;5091152;28;20047;-62
2023/07/18 05:59:05;;;;;;;13.35;5.55;;;16.40;99.90;;;;;;5112503;27;20124;-62
2023/07/18 06:01:30;;;;;;;14.52;6.00;;;16.50;99.90;;;;;;5071872;28;20047;-62
2023/07/18 06:03:57;;;;;;;13.10;5.38;;;16.50;99.90;;;;;;5071226;28;20391;-62
2023/07/18 06:06:24;;;;;;;16.92;6.63;;;16.60;99.90;;;;;;5071422;28;20403;-62
2023/07/18 06:08:50;;;;;;;17.70;5.47;;;16.70;99.90;;;;;;5053719;28;20037;-62
2023/07/18 06:11:17;;;;;;;16.10;6.43;;;16.80;99.90;;;;;;5087045;28;20036;-62
2023/07/18 06:13:44;;;;;;;14.73;5.47;;;16.90;99.90;;;;;;5091167;28;20051;-62
2023/07/18 06:16:10;;;;;;;14.13;5.53;;;17.00;99.90;;;;;;5092081;28;20118;-62
2023/07/18 06:18:36;;;;;;;17.73;6.00;;;17.00;99.90;;;;;;5091327;28;20561;-62
2023/07/18 06:21:03;;;;;;;14.50;5.57;;;17.10;99.90;;;;;;5090861;28;20044;-62
2023/07/18 06:23:31;;;;;;;20.80;6.78;;;17.20;99.90;;;;;;5073186;28;20039;-62
2023/07/18 06:25:57;;;;;;;17.95;6.90;;;17.20;99.90;;;;;;5091339;28;20039;-62
2023/07/18 06:28:23;;;;;;;12.73;6.78;;;17.20;99.90;;;;;;5090327;28;20514;-62
2023/07/18 06:30:54;;;;;;;22.40;7.13;;;17.20;99.90;;;;;;5073637;28;20097;-62
2023/07/18 06:33:20;;;;;;;15.30;7.13;;;17.20;99.90;;;;;;5072719;28;20473;-62
2023/07/18 06:35:53;;;;;;;19.70;7.85;;;17.30;99.90;;;;;;5086840;28;20047;-62
2023/07/18 06:38:19;;;;;;;16.92;6.85;;;17.40;99.90;;;;;;5070742;28;20040;-62
2023/07/18 06:40:49;;;;;;;19.70;7.63;;;17.50;99.90;;;;;;5089586;28;20115;-62
2023/07/18 06:43:16;;;;;;;20.00;8.57;;;17.50;99.90;;;;;;5088476;28;20058;-62
2023/07/18 06:45:48;;;;;;;24.67;10.45;;;17.50;99.90;;;;;;5087743;28;20051;-62
2023/07/18 06:48:14;;;;;;;21.77;9.93;;;17.50;99.90;;;;;;5120489;28;20044;-62
2023/07/18 06:50:48;;;;;;;18.63;9.15;;;17.60;99.90;;;;;;5087138;28;20087;-62
2023/07/18 06:53:17;;;;;;;24.77;11.00;;;17.80;99.90;;;;;;5087977;28;20048;-62
2023/07/18 06:55:43;;;;;;;19.20;10.13;;;18.00;99.90;;;;;;5070683;28;20316;-62
2023/07/18 06:58:09;;;;;;;9.93;3.72;;;18.10;99.90;;;;;;5088047;28;20044;-62
2023/07/18 07:00:36;;;;;;;16.33;7.03;;;18.10;99.90;;;;;;5110248;28;20098;-62
2023/07/18 07:03:02;;;;;;;15.65;7.10;;;18.20;99.90;;;;;;5085767;28;20042;-62
2023/07/18 07:05:27;;;;;;;15.68;4.82;;;18.30;99.90;;;;;;5069831;28;20123;-62
2023/07/18 07:07:54;;;;;;;11.57;4.63;;;18.50;99.90;;;;;;5089076;28;20126;-62
2023/07/18 07:10:20;;;;;;;12.10;4.88;;;18.60;99.90;;;;;;5088316;28;20047;-63
2023/07/18 07:12:45;;;;;;;6.68;3.10;;;18.80;99.90;;;;;;5086389;28;20400;-62
2023/07/18 07:15:14;;;;;;;11.27;5.55;;;19.00;99.90;;;;;;5088355;28;20074;-62
2023/07/18 07:17:40;;;;;;;16.52;5.90;;;19.10;99.90;;;;;;5088569;28;20460;-62
2023/07/18 07:20:07;;;;;;;17.60;6.28;;;19.20;99.90;;;;;;5086889;28;20123;-62
2023/07/18 07:22:33;;;;;;;11.75;4.25;;;19.10;99.90;;;;;;5087376;28;20355;-62
2023/07/18 07:24:58;;;;;;;12.65;4.60;;;19.10;99.90;;;;;;5087566;28;20048;-62
2023/07/18 07:27:24;;;;;;;13.70;5.35;;;19.00;99.90;;;;;;5088233;28;20044;-62
2023/07/18 07:29:51;;;;;;;19.20;6.53;;;19.00;99.90;;;;;;5088412;28;20111;-62
2023/07/18 07:32:17;;;;;;;16.98;6.00;;;19.00;99.90;;;;;;5087447;28;20047;-62
2023/07/18 07:34:43;;;;;;;14.00;4.93;;;19.20;99.90;;;;;;5088226;28;20040;-62
2023/07/18 07:37:10;;;;;;;9.07;2.92;;;19.30;99.90;;;;;;5087474;28;20048;-62
2023/07/18 07:39:36;;;;;;;8.77;2.15;;;19.30;99.90;;;;;;5087713;28;20040;-62
2023/07/18 07:42:01;;;;;;;9.13;2.50;;;19.20;99.90;;;;;;5087307;28;20105;-62
2023/07/18 07:44:27;;;;;;;10.55;2.63;;;19.20;99.90;;;;;;5086857;28;20056;-63
2023/07/18 07:46:55;;;;;;;9.15;2.53;;;19.30;99.90;;;;;;5085705;28;20044;-62
2023/07/18 07:49:21;;;;;;;3.30;1.55;;;19.10;99.90;;;;;;5086001;28;20056;-62
2023/07/18 07:51:46;;;;;;;6.88;1.92;;;19.10;99.90;;;;;;5086794;28;20048;-62
2023/07/18 07:54:12;;;;;;;6.10;2.03;;;18.90;99.90;;;;;;5110218;27;20132;-62
2023/07/18 07:56:38;;;;;;;9.13;1.67;;;18.80;99.90;;;;;;5118891;27;20046;-62
2023/07/18 07:59:03;;;;;;;15.43;2.70;;;18.80;99.90;;;;;;5090974;28;20126;-62
2023/07/18 08:01:29;;;;;;;4.10;1.63;;;18.70;99.90;;;;;;5090278;28;20047;-62
2023/07/18 08:03:55;;;;;;;4.75;1.73;;;18.80;99.90;;;;;;5090376;28;20055;-62
2023/07/18 08:06:21;;;;;;;11.52;2.55;;;18.80;99.90;;;;;;5092903;28;20439;-63
2023/07/18 08:08:47;;;;;;;7.25;2.15;;;18.90;99.90;;;;;;5092569;28;20024;-62
2023/07/18 08:11:12;;;;;;;5.82;1.83;;;19.10;99.90;;;;;;5127538;27;20454;-62
2023/07/18 08:13:38;;;;;;;5.28;1.75;;;19.30;99.90;;;;;;5127871;27;20445;-62
2023/07/18 08:16:05;;;;;;;9.82;1.85;;;19.50;99.90;;;;;;5093435;28;20036;-62
2023/07/18 08:18:31;;;;;;;6.38;2.00;;;19.50;99.90;;;;;;5093433;28;20103;-62
2023/07/18 08:20:57;;;;;;;5.07;2.05;;;19.50;99.90;;;;;;5094858;28;20061;-62
2023/07/18 08:23:22;;;;;;;4.32;1.95;;;19.60;99.90;;;;;;5075531;28;20047;-62
2023/07/18 08:25:49;;;;;;;4.22;2.08;;;19.60;99.90;;;;;;5094644;28;20192;-61
2023/07/18 08:28:15;;;;;;;9.30;3.17;;;19.60;99.90;;;;;;5094473;28;20044;-61
2023/07/18 08:30:41;;;;;;;9.30;2.45;;;19.60;99.90;;;;;;5092094;28;20462;-62
2023/07/18 08:33:08;;;;;;;7.60;2.88;;;19.50;99.90;;;;;;5094341;28;20088;-61
2023/07/18 08:35:34;;;;;;;4.70;1.98;;;19.40;99.90;;;;;;5092581;28;20032;-61
2023/07/18 08:38:00;;;;;;;10.00;1.52;;;19.40;99.90;;;;;;5092943;28;20067;-62
2023/07/18 08:40:25;;;;;;;4.88;1.75;;;19.30;99.90;;;;;;5125417;27;20339;-62
2023/07/18 08:42:51;;;;;;;2.97;1.52;;;19.20;99.90;;;;;;5092497;28;20040;-61
2023/07/18 08:45:19;;;;;;;5.55;2.08;;;19.10;99.90;;;;;;5126778;27;20495;-62
2023/07/18 08:47:46;;;;;;;2.55;1.13;;;19.10;99.90;;;;;;5092698;28;20050;-62
2023/07/18 08:50:12;;;;;;;3.05;1.80;;;19.00;99.90;;;;;;5093339;28;20056;-61
2023/07/18 08:52:39;;;;;;;3.88;1.60;;;19.10;99.90;;;;;;5094118;28;20079;-62
2023/07/18 08:55:06;;;;;;;2.38;1.52;;;19.30;99.90;;;;;;5126665;27;20121;-62
2023/07/18 08:57:32;;;;;;;7.13;2.03;;;19.50;99.90;;;;;;5091795;28;20036;-61
2023/07/18 09:00:05;;;;;;;6.85;2.50;;;19.80;99.90;;;;;;5092539;28;20074;-63
2023/07/18 09:02:31;;;;;;;7.38;2.53;;;20.00;99.90;;;;;;5092537;28;20085;-62
2023/07/18 09:04:56;;;;;;;4.05;1.77;;;20.30;99.90;;;;;;5091452;28;20036;-61
2023/07/18 09:07:27;;;;;;;6.28;1.77;;;20.50;99.90;;;;;;5093631;28;20042;-62
2023/07/18 09:09:54;;;;;;;6.55;2.22;;;20.60;99.90;;;;;;5093962;28;20090;-62
2023/07/18 09:12:20;;;;;;;11.55;3.10;;;20.90;99.90;;;;;;5091531;28;20043;-63
2023/07/18 09:14:46;;;;;;;11.80;3.58;;;21.00;99.90;;;;;;5092431;28;20461;-62
2023/07/18 09:17:12;;;;;;;7.90;2.88;;;20.90;99.90;;;;;;5092236;28;20108;-62
2023/07/18 09:19:43;;;;;;;9.32;2.70;;;20.90;99.90;;;;;;5091856;28;20036;-63
2023/07/18 09:22:11;;;;;;;10.10;2.85;;;20.80;99.90;;;;;;5093812;28;20392;-62
2023/07/18 09:24:37;;;;;;;9.10;2.60;;;20.80;99.90;;;;;;5075117;28;20044;-62
2023/07/18 09:27:08;;;;;;;8.48;2.88;;;20.70;99.90;;;;;;5091054;28;20075;-62
2023/07/18 09:29:34;;;;;;;7.10;2.58;;;20.70;99.90;;;;;;5091821;28;20087;-63
2023/07/18 09:32:00;;;;;;;8.10;2.13;;;20.70;99.90;;;;;;5091846;28;20540;-63
2023/07/18 09:34:27;;;;;;;10.43;3.60;;;20.70;99.90;;;;;;5093054;28;20173;-65
2023/07/18 09:36:58;;;;;;;10.32;2.90;;;20.70;99.90;;;;;;5092898;28;20036;-64
2023/07/18 09:39:25;;;;;;;9.32;3.00;;;20.60;99.90;;;;;;5073848;28;20032;-62
2023/07/18 09:41:51;;;;;;;11.50;3.92;;;20.50;99.90;;;;;;5091444;28;20507;-62
2023/07/18 09:44:19;;;;;;;10.82;3.03;;;20.50;99.90;;;;;;5092197;28;20059;-63
2023/07/18 09:46:44;;;;;;;10.32;3.03;;;20.50;99.90;;;;;;5092760;28;20055;-63
2023/07/18 09:49:10;;;;;;;8.55;2.75;;;20.40;99.90;;;;;;5074723;28;20052;-62
2023/07/18 09:51:38;;;;;;;9.73;2.90;;;20.30;99.90;;;;;;5092732;28;20119;-62
2023/07/18 09:54:06;;;;;;;9.07;2.85;;;20.30;99.90;;;;;;5109819;28;20039;-62
2023/07/18 09:56:39;;;;;;;8.25;2.60;;;20.20;99.90;;;;;;5080667;28;20036;-62
2023/07/18 09:59:08;;;;;;;6.68;2.92;;;20.10;99.90;;;;;;5097331;28;20039;-62
2023/07/18 10:01:34;;;;;;;8.40;2.45;;;20.10;99.90;;;;;;5090186;28;20046;-62
2023/07/18 10:04:00;;;;;;;7.75;2.78;;;20.20;99.90;;;;;;5091228;28;20157;-63
2023/07/18 10:06:27;;;;;;;7.63;3.05;;;20.50;99.90;;;;;;5091498;28;20032;-63
2023/07/18 10:08:54;;;;;;;8.13;3.13;;;20.80;99.90;;;;;;5090788;28;20047;-64
2023/07/18 10:11:20;;;;;;;7.75;3.00;;;21.00;99.90;;;;;;5091356;28;20101;-65
2023/07/18 10:13:55;;;;;;;10.27;2.97;;;21.00;99.90;;;;;;5090836;28;20036;-64
2023/07/18 10:16:22;;;;;;;7.97;2.75;;;21.10;99.90;;;;;;5090246;28;20040;-64
2023/07/18 10:18:52;;;;;;;10.93;3.13;;;21.00;99.90;;;;;;5089308;28;20392;-64
2023/07/18 10:21:32;;;;;;;9.50;3.50;;;21.10;99.90;;;;;;5088952;28;20044;-64
2023/07/18 10:24:28;;;;;;;10.27;2.85;;;21.40;99.90;;;;;;5091104;28;20040;-64
2023/07/18 10:27:07;;;;;;;8.15;3.35;;;21.60;99.90;;;;;;5070847;28;20040;-64
2023/07/18 10:29:41;;;;;;;10.65;2.88;;;22.00;99.90;;;;;;5073577;28;20051;-64
2023/07/18 10:32:13;;;;;;;7.70;1.98;;;22.20;99.90;;;;;;5091248;28;20083;-63
2023/07/18 10:34:52;;;;;;;9.35;3.15;;;22.20;99.90;;;;;;5090888;28;20036;-63
2023/07/18 10:37:26;;;;;;;8.88;2.83;;;22.40;99.90;;;;;;5090412;28;20119;-62
2023/07/18 10:39:52;;;;;;;6.40;2.88;;;22.50;99.90;;;;;;5090427;28;20034;-61
2023/07/18 10:42:24;;;;;;;9.18;3.22;;;22.70;99.90;;;;;;5088312;28;20045;-62
2023/07/18 10:45:00;;;;;;;8.27;2.60;;;22.80;99.90;;;;;;5074595;28;20058;-61
2023/07/18 10:47:27;;;;;;;5.90;2.10;;;22.80;99.90;;;;;;5090817;28;20054;-62
2023/07/18 10:49:53;;;;;;;9.52;3.53;;;22.80;99.90;;;;;;5089917;28;20101;-61
2023/07/18 10:52:21;;;;;;;7.15;2.88;;;22.70;99.90;;;;;;5091008;28;20109;-61
2023/07/18 10:54:56;;;;;;;8.20;2.85;;;22.50;99.90;;;;;;5090586;28;20036;-61
2023/07/18 10:57:32;;;;;;;8.18;2.70;;;22.20;99.90;;;;;;5090314;28;20395;-61
2023/07/18 10:59:59;;;;;;;6.90;3.13;;;22.00;99.90;;;;;;5073983;28;20119;-61
2023/07/18 11:02:26;;;;;;;7.75;3.58;;;21.90;99.90;;;;;;5125263;28;20035;-61
2023/07/18 11:04:53;;;;;;;10.18;4.25;;;22.10;99.90;;;;;;5090057;28;20438;-61
2023/07/18 11:07:31;;;;;;;8.48;3.13;;;22.40;99.90;;;;;;5092072;28;20044;-63
2023/07/18 11:09:57;;;;;;;8.20;2.65;;;22.60;99.90;;;;;;5090968;28;20512;-62
2023/07/18 11:12:23;;;;;;;7.50;3.00;;;22.90;99.90;;;;;;5123859;28;20048;-63
2023/07/18 11:14:49;;;;;;;10.43;3.13;;;23.00;99.90;;;;;;5091727;28;20059;-63
2023/07/18 11:17:17;;;;;;;7.35;3.22;;;22.90;99.90;;;;;;5090559;28;20036;-62
2023/07/18 11:19:43;;;;;;;10.88;3.83;;;23.00;99.90;;;;;;5073389;28;20159;-62
2023/07/18 11:22:16;;;;;;;10.00;3.85;;;22.90;99.90;;;;;;5073910;28;20106;-62
2023/07/18 11:24:45;;;;;;;7.95;3.38;;;23.00;99.90;;;;;;5072807;28;20047;-61
2023/07/18 11:27:21;;;;;;;9.90;4.38;;;23.00;99.90;;;;;;5091162;28;20510;-62
2023/07/18 11:30:08;;;;;;;10.35;3.60;;;23.00;99.90;;;;;;5093742;28;20378;-62
2023/07/18 11:32:41;;;;;;;10.70;3.78;;;23.00;99.90;;;;;;5093680;28;20173;-62
2023/07/18 11:35:12;;;;;;;6.85;3.05;;;22.80;99.90;;;;;;5095876;28;20122;-62
2023/07/18 11:37:43;;;;;;;10.30;4.30;;;22.60;99.90;;;;;;5094569;28;20036;-62
2023/07/18 11:40:10;;;;;;;6.88;2.75;;;22.30;99.90;;;;;;5093758;28;20036;-62
2023/07/18 11:42:43;;;;;;;6.72;1.75;;;22.00;99.90;;;;;;5095561;28;20040;-62
2023/07/18 11:45:09;;;;;;;4.85;1.95;;;21.60;99.90;;;;;;5095828;28;20044;-62
2023/07/18 11:47:37;;;;;;;6.15;1.67;;;21.40;99.90;;;;;;5076721;28;20606;-62
2023/07/18 11:50:09;;;;;;;5.05;1.60;;;21.20;99.90;;;;;;5095331;28;20055;-63
2023/07/18 11:52:35;;;;;;;3.65;1.50;;;21.00;99.90;;;;;;5094378;28;20386;-61
2023/07/18 11:55:02;;;;;;;4.32;1.73;;;20.90;99.90;;;;;;5093816;28;20051;-62
2023/07/18 11:57:28;;;;;;;5.65;1.58;;;20.80;99.90;;;;;;5095355;28;20047;-62
2023/07/18 11:59:54;;;;;;;4.32;1.38;;;20.60;99.90;;;;;;5110188;28;20067;-62
2023/07/18 12:02:20;;;;;;;1.90;1.13;;;20.50;99.90;;;;;;5095220;28;20086;-61
2023/07/18 12:04:45;;;;;;;5.60;1.48;;;20.50;99.90;;;;;;5093779;28;20077;-62
2023/07/18 12:07:11;;;;;;;4.97;1.63;;;20.40;99.90;;;;;;5094394;28;20036;-62
2023/07/18 12:09:37;;;;;;;3.10;1.67;;;20.40;99.90;;;;;;5110780;28;20074;-62
2023/07/18 12:12:03;;;;;;;6.13;1.77;;;20.50;99.90;;;;;;5127752;27;20044;-63
2023/07/18 12:14:31;;;;;;;3.95;1.67;;;20.50;99.90;;;;;;5092713;28;20089;-62
2023/07/18 12:16:57;;;;;;;3.63;1.40;;;20.60;99.90;;;;;;5093571;28;20093;-62
2023/07/18 12:19:23;;;;;;;5.97;2.25;;;20.70;99.90;;;;;;5093575;28;20032;-62
2023/07/18 12:21:49;;;;;;;4.53;1.58;;;20.90;99.90;;;;;;5093857;28;20051;-62
2023/07/18 12:24:15;;;;;;;5.18;1.70;;;21.00;99.90;;;;;;5093230;28;20044;-62
2023/07/18 12:26:40;;;;;;;4.88;1.58;;;21.00;99.90;;;;;;5093420;28;20071;-62
2023/07/18 12:29:06;;;;;;;4.50;1.80;;;21.20;99.90;;;;;;5094262;28;20456;-62
2023/07/18 12:31:35;;;;;;;6.00;1.60;;;21.40;99.90;;;;;;5093458;28;20497;-62
2023/07/18 12:34:01;;;;;;;5.07;1.83;;;21.60;99.90;;;;;;5127169;27;20040;-62
2023/07/18 12:36:26;;;;;;;3.10;1.30;;;21.70;99.90;;;;;;5093890;28;20081;-62
2023/07/18 12:38:52;;;;;;;7.43;1.98;;;21.70;99.90;;;;;;5092991;28;20120;-62
2023/07/18 12:41:18;;;;;;;7.30;1.85;;;21.60;99.90;;;;;;5126871;27;20036;-62
2023/07/18 12:43:43;;;;;;;6.07;2.00;;;21.40;99.90;;;;;;5093568;28;20036;-62